Time;durP1;ratioP1;P1;durP2;ratioP2;P2;SDS_P1;SDS_P2;PMS_P1;PMS_P2;Temp;Humidity;BMP_temperature;BMP_pressure;BME280_temperature;BME280_humidity;BME280_pressure;Samples;Min_cycle;Max_cycle;Signal;HPM_P1;HPM_P2
2022/03/02 00:00:44;;;;;;;22.70;12.05;;;1.50;75.50;;;;;;4965218;28;20561;-83
2022/03/02 04:43:04;;;;;;;21.60;12.90;;;-0.70;94.30;;;;;;6068348;23;20226;31
2022/03/02 04:45:31;;;;;;;19.48;11.45;;;-0.70;94.50;;;;;;4915841;29;20072;-84
2022/03/02 04:47:59;;;;;;;21.85;12.20;;;-0.70;94.70;;;;;;4914613;29;20131;-76
2022/03/02 04:50:27;;;;;;;21.92;11.73;;;-0.70;94.70;;;;;;4927863;29;20067;-78
2022/03/02 04:52:56;;;;;;;21.92;12.88;;;-0.70;94.70;;;;;;4917562;29;20052;-77
2022/03/02 04:55:24;;;;;;;24.30;12.88;;;-0.70;94.70;;;;;;4926470;29;20131;-77
2022/03/02 04:57:55;;;;;;;23.38;13.35;;;-0.80;94.50;;;;;;4933090;29;20084;-78
2022/03/02 05:00:26;;;;;;;23.48;12.18;;;-0.90;94.70;;;;;;4916824;29;20072;-80
2022/03/02 05:02:54;;;;;;;22.88;12.32;;;-1.00;94.70;;;;;;4913437;29;20131;-79
2022/03/02 05:05:23;;;;;;;23.23;12.30;;;-1.10;94.90;;;;;;4908727;29;20455;-79
2022/03/02 05:07:51;;;;;;;23.48;12.75;;;-1.20;95.20;;;;;;4917884;29;20079;-79
2022/03/02 05:10:20;;;;;;;25.63;12.25;;;-1.20;95.50;;;;;;4923276;29;20108;-78
2022/03/02 05:12:48;;;;;;;21.88;11.40;;;-1.20;95.70;;;;;;4916707;29;20116;-78
2022/03/02 05:15:16;;;;;;;23.05;11.82;;;-1.10;95.80;;;;;;4913118;29;20100;-82
2022/03/02 05:17:46;;;;;;;22.75;12.13;;;-1.10;95.90;;;;;;4920430;29;20048;-74
2022/03/02 05:20:16;;;;;;;19.77;12.15;;;-1.00;95.80;;;;;;4928964;29;20107;-76
2022/03/02 05:22:43;;;;;;;20.48;11.50;;;-1.00;95.80;;;;;;4932297;29;20131;-76
2022/03/02 05:25:12;;;;;;;22.35;12.27;;;-0.90;95.90;;;;;;4916480;29;20124;-75
2022/03/02 05:27:40;;;;;;;23.73;12.23;;;-0.90;95.80;;;;;;4920181;29;20067;-77
2022/03/02 05:30:09;;;;;;;23.05;12.48;;;-0.90;95.90;;;;;;4929683;29;20059;-74
2022/03/02 05:32:37;;;;;;;21.23;12.40;;;-0.90;95.80;;;;;;4916732;29;20108;-75
2022/03/02 05:35:07;;;;;;;21.25;12.30;;;-0.90;95.60;;;;;;4917794;29;20131;-74
2022/03/02 05:37:34;;;;;;;21.98;12.35;;;-0.90;95.50;;;;;;4931058;29;20071;-75
2022/03/02 05:40:02;;;;;;;24.05;12.23;;;-0.90;95.50;;;;;;4929706;29;20147;-74
2022/03/02 05:42:29;;;;;;;24.25;12.57;;;-0.90;95.60;;;;;;4921331;29;20047;-73
2022/03/02 05:44:57;;;;;;;22.83;12.40;;;-0.90;95.60;;;;;;4916042;29;20068;-74
2022/03/02 05:47:24;;;;;;;21.33;12.23;;;-0.90;95.50;;;;;;4930895;29;20136;-74
2022/03/02 05:49:51;;;;;;;24.08;12.30;;;-0.90;95.60;;;;;;4930804;29;20107;-74
2022/03/02 05:52:20;;;;;;;23.80;12.73;;;-0.90;95.40;;;;;;4949786;29;20052;-74
2022/03/02 05:54:47;;;;;;;21.50;11.70;;;-0.90;95.20;;;;;;4950818;29;20071;-75
2022/03/02 05:57:14;;;;;;;22.55;12.52;;;-0.90;95.20;;;;;;4950900;29;20075;-75
2022/03/02 05:59:41;;;;;;;20.35;11.80;;;-0.90;95.50;;;;;;4949306;29;20468;-74
2022/03/02 06:02:08;;;;;;;23.05;12.60;;;-0.90;95.70;;;;;;4947152;29;20130;-74
2022/03/02 06:04:35;;;;;;;24.83;13.32;;;-0.90;95.70;;;;;;4947755;29;20058;-74
2022/03/02 06:07:02;;;;;;;22.05;12.13;;;-0.80;95.70;;;;;;4949286;29;20134;-75
2022/03/02 06:09:31;;;;;;;22.10;12.32;;;-0.80;95.70;;;;;;4947615;29;20052;-75
2022/03/02 06:11:59;;;;;;;23.92;12.32;;;-0.80;95.60;;;;;;4931710;29;20131;-74
2022/03/02 06:14:27;;;;;;;23.00;12.90;;;-0.80;95.60;;;;;;4946454;29;20111;-74
2022/03/02 06:16:54;;;;;;;21.95;12.45;;;-0.70;95.50;;;;;;4931236;29;20104;-75
2022/03/02 06:19:22;;;;;;;24.42;12.80;;;-0.70;95.60;;;;;;4930485;29;20186;-75
2022/03/02 06:21:50;;;;;;;22.40;12.35;;;-0.70;95.60;;;;;;4931259;29;20123;-75
2022/03/02 06:24:18;;;;;;;20.95;12.23;;;-0.70;95.60;;;;;;4928979;29;20139;-76
2022/03/02 06:26:47;;;;;;;21.75;12.27;;;-0.70;95.60;;;;;;4927306;29;20138;-74
2022/03/02 06:29:14;;;;;;;20.58;12.18;;;-0.70;95.50;;;;;;4929636;29;20107;-75
2022/03/02 06:31:41;;;;;;;23.40;12.55;;;-0.70;95.70;;;;;;4942862;29;20506;-74
2022/03/02 06:34:08;;;;;;;22.63;11.93;;;-0.60;95.90;;;;;;4929809;29;20052;-74
2022/03/02 06:36:35;;;;;;;23.95;12.85;;;-0.60;95.80;;;;;;4929693;29;20062;-74
2022/03/02 06:39:04;;;;;;;23.90;12.88;;;-0.60;95.80;;;;;;4933182;29;20120;-73
2022/03/02 06:41:48;;;;;;;20.45;11.80;;;-0.50;95.70;;;;;;4939379;29;20048;-74
2022/03/02 06:44:26;;;;;;;24.98;12.73;;;-0.50;95.70;;;;;;4926040;29;20076;-74
2022/03/02 06:47:02;;;;;;;22.15;12.40;;;-0.50;95.70;;;;;;4952160;29;20048;-74
2022/03/02 06:49:44;;;;;;;22.83;11.60;;;-0.50;95.70;;;;;;4953129;29;20048;-74
2022/03/02 06:52:13;;;;;;;19.45;11.73;;;-0.60;95.90;;;;;;4941326;29;20553;-75
2022/03/02 06:54:44;;;;;;;20.20;11.88;;;-0.60;96.10;;;;;;4936843;29;20142;-74
2022/03/02 06:57:20;;;;;;;24.65;12.27;;;-0.60;96.10;;;;;;4939299;29;20048;-74
2022/03/02 06:59:52;;;;;;;22.63;12.40;;;-0.60;96.00;;;;;;4941059;29;20135;-75
2022/03/02 07:02:28;;;;;;;22.00;12.32;;;-0.60;96.10;;;;;;4949848;29;20058;-74
2022/03/02 07:04:57;;;;;;;21.60;12.20;;;-0.60;96.10;;;;;;4946526;29;20446;-74
2022/03/02 07:07:25;;;;;;;23.88;12.63;;;-0.60;96.30;;;;;;4933157;29;20052;-74
2022/03/02 07:09:54;;;;;;;23.10;12.98;;;-0.60;96.30;;;;;;4936947;29;20050;-74
2022/03/02 07:12:24;;;;;;;21.13;12.10;;;-0.70;96.30;;;;;;4941883;29;20106;-74
2022/03/02 07:14:51;;;;;;;23.02;12.45;;;-0.70;96.50;;;;;;4931223;29;20048;-74
2022/03/02 07:17:18;;;;;;;24.13;14.05;;;-0.70;97.10;;;;;;4942847;29;20051;-74
2022/03/02 07:19:45;;;;;;;25.95;14.23;;;-0.70;97.20;;;;;;4949618;29;20124;-75
2022/03/02 07:22:17;;;;;;;26.58;13.98;;;-0.60;97.50;;;;;;4934742;29;20197;-74
2022/03/02 07:24:53;;;;;;;23.90;12.90;;;-0.60;97.50;;;;;;4926166;29;20127;-74
2022/03/02 07:27:23;;;;;;;25.10;13.80;;;-0.60;97.90;;;;;;4922703;29;20075;-74
2022/03/02 07:29:53;;;;;;;21.33;12.32;;;-0.50;97.80;;;;;;4942513;29;20566;-75
2022/03/02 07:32:23;;;;;;;22.67;12.55;;;-0.50;97.90;;;;;;4943071;29;20152;-74
2022/03/02 07:34:56;;;;;;;21.95;12.95;;;-0.40;97.80;;;;;;4927698;29;20131;-75
2022/03/02 07:37:26;;;;;;;21.45;12.52;;;-0.20;97.70;;;;;;4929817;29;20127;-74
2022/03/02 07:39:54;;;;;;;21.65;12.27;;;-0.10;97.40;;;;;;4931381;29;20131;-75
2022/03/02 07:42:22;;;;;;;23.27;13.07;;;0.10;97.20;;;;;;4937423;29;20062;-75
2022/03/02 07:44:50;;;;;;;22.08;12.85;;;0.20;97.00;;;;;;4944215;29;20132;-75
2022/03/02 07:47:19;;;;;;;23.63;12.05;;;0.40;96.80;;;;;;4944342;29;20111;-76
2022/03/02 07:49:47;;;;;;;22.23;12.35;;;0.50;96.50;;;;;;4949043;29;20060;-75
2022/03/02 07:52:17;;;;;;;22.08;12.52;;;0.60;96.30;;;;;;4937090;29;20120;-75
2022/03/02 07:54:46;;;;;;;19.65;11.70;;;0.70;96.30;;;;;;4936857;29;20075;-82
2022/03/02 07:57:15;;;;;;;23.33;12.82;;;0.90;96.20;;;;;;4944350;29;20079;-75
2022/03/02 07:59:45;;;;;;;23.67;13.05;;;1.00;96.00;;;;;;4938184;29;20048;-75
2022/03/02 08:02:15;;;;;;;24.50;13.50;;;1.10;95.80;;;;;;4948031;29;20111;-75
2022/03/02 08:04:42;;;;;;;21.63;12.65;;;1.20;95.30;;;;;;4944454;29;20486;-74
2022/03/02 08:07:11;;;;;;;22.15;12.65;;;1.20;95.10;;;;;;4947462;29;20130;-75
2022/03/02 08:09:38;;;;;;;21.02;12.75;;;1.30;95.10;;;;;;4947667;29;20054;-75
2022/03/02 08:12:07;;;;;;;28.13;13.75;;;1.40;95.00;;;;;;4930688;29;20482;-77
2022/03/02 08:14:34;;;;;;;28.23;14.32;;;1.40;94.90;;;;;;4929763;29;20052;-75
2022/03/02 08:17:04;;;;;;;25.05;13.65;;;1.50;94.60;;;;;;4938233;29;20147;-76
2022/03/02 08:19:32;;;;;;;26.02;13.70;;;1.60;94.40;;;;;;4939022;29;20055;-76
2022/03/02 08:22:03;;;;;;;22.52;12.43;;;1.70;93.90;;;;;;4930188;29;20047;-74
2022/03/02 08:24:31;;;;;;;21.55;12.50;;;1.70;93.30;;;;;;4934346;29;20478;-75
2022/03/02 08:27:01;;;;;;;23.83;12.35;;;1.80;92.90;;;;;;4921265;29;20051;-74
2022/03/02 08:29:32;;;;;;;28.48;14.95;;;1.80;92.90;;;;;;4920802;29;20052;-75
2022/03/02 08:32:03;;;;;;;28.55;15.48;;;1.80;93.00;;;;;;4920346;29;20094;-76
2022/03/02 08:34:33;;;;;;;27.70;15.38;;;1.90;93.20;;;;;;4923218;29;20072;-74
2022/03/02 08:37:01;;;;;;;27.55;15.55;;;2.00;93.20;;;;;;4927470;29;20111;-74
2022/03/02 08:39:29;;;;;;;28.00;15.77;;;2.10;92.70;;;;;;4938060;29;20107;-76
2022/03/02 08:41:57;;;;;;;25.38;14.18;;;2.10;92.20;;;;;;4924291;29;20086;-75
2022/03/02 08:44:24;;;;;;;21.75;13.38;;;2.20;91.80;;;;;;4924918;29;20107;-75
2022/03/02 08:46:51;;;;;;;21.80;13.27;;;2.20;90.90;;;;;;4935219;29;20139;-74
2022/03/02 08:49:21;;;;;;;22.10;12.52;;;2.10;91.00;;;;;;4932477;29;20048;-77
2022/03/02 08:51:51;;;;;;;25.88;14.00;;;2.20;91.10;;;;;;4921070;29;20059;-76
2022/03/02 08:54:20;;;;;;;21.73;13.02;;;2.20;91.20;;;;;;4924209;29;20048;-75
2022/03/02 08:56:48;;;;;;;20.65;12.00;;;2.20;91.30;;;;;;4939707;29;20052;-75
2022/03/02 08:59:18;;;;;;;19.98;11.80;;;2.30;91.50;;;;;;4928793;29;20059;-77
2022/03/02 09:01:51;;;;;;;21.58;11.55;;;2.40;91.30;;;;;;4941005;29;20052;-75
2022/03/02 09:04:20;;;;;;;19.15;11.40;;;2.50;91.10;;;;;;4928285;29;20058;-76
2022/03/02 09:06:48;;;;;;;21.83;11.88;;;2.50;91.20;;;;;;4947038;29;20075;-78
2022/03/02 09:09:16;;;;;;;18.33;10.85;;;2.60;91.20;;;;;;4931838;29;20048;-77
2022/03/02 09:11:44;;;;;;;18.73;11.10;;;2.70;91.00;;;;;;4924971;29;20058;-75
2022/03/02 09:14:11;;;;;;;21.15;11.10;;;2.80;90.90;;;;;;4927487;29;20044;-75
2022/03/02 09:16:39;;;;;;;18.98;10.98;;;3.00;90.70;;;;;;4942485;29;20111;-77
2022/03/02 09:19:07;;;;;;;19.45;11.35;;;3.20;90.40;;;;;;4925693;29;20099;-77
2022/03/02 09:21:36;;;;;;;18.45;10.80;;;3.30;90.00;;;;;;4930937;29;20051;-75
2022/03/02 09:24:05;;;;;;;18.20;11.27;;;3.40;87.30;;;;;;4942913;29;20051;-75
2022/03/02 09:26:33;;;;;;;19.33;11.23;;;3.50;84.30;;;;;;4941036;29;20047;-76
2022/03/02 09:29:05;;;;;;;20.65;11.82;;;3.60;83.20;;;;;;4942903;29;20146;-76
2022/03/02 09:31:35;;;;;;;17.48;10.05;;;3.60;81.30;;;;;;4927689;29;20073;-75
2022/03/02 09:34:06;;;;;;;16.42;10.00;;;3.60;81.00;;;;;;4924686;29;20056;-78
2022/03/02 09:36:37;;;;;;;16.70;9.95;;;3.70;81.10;;;;;;4922899;29;20055;-76
2022/03/02 09:39:08;;;;;;;16.20;9.65;;;3.80;81.40;;;;;;4921580;29;20044;-75
2022/03/02 09:41:49;;;;;;;15.20;9.82;;;4.00;80.50;;;;;;4935133;29;20055;-75
2022/03/02 09:44:20;;;;;;;19.30;11.27;;;4.10;79.50;;;;;;4918752;29;20052;-75
2022/03/02 09:46:51;;;;;;;16.65;10.07;;;4.20;78.40;;;;;;4935085;29;20493;-75
2022/03/02 09:49:23;;;;;;;16.73;9.95;;;4.30;78.60;;;;;;4934604;29;20457;-76
2022/03/02 09:51:59;;;;;;;19.05;10.65;;;4.50;78.60;;;;;;4915975;29;20155;-75
2022/03/02 09:54:27;;;;;;;17.42;10.55;;;4.60;78.70;;;;;;4915309;29;20056;-75
2022/03/02 09:56:56;;;;;;;18.00;11.00;;;4.70;78.20;;;;;;4915654;29;20056;-75
2022/03/02 09:59:26;;;;;;;17.00;10.65;;;4.80;78.10;;;;;;4915136;29;20059;-77
2022/03/02 10:01:54;;;;;;;16.90;10.65;;;4.80;78.10;;;;;;4919598;29;20492;-74
2022/03/02 10:04:23;;;;;;;15.23;10.25;;;4.90;78.30;;;;;;4935707;29;20078;-75
2022/03/02 10:07:26;;;;;;;17.58;10.52;;;5.00;78.20;;;;;;4918737;29;20055;-75
2022/03/02 10:09:48;;;;;;;15.85;10.00;;;5.10;77.60;;;;;;4927759;29;20087;-76
2022/03/02 10:12:16;;;;;;;17.50;10.60;;;5.20;76.40;;;;;;4933419;29;20051;-74
2022/03/02 10:14:44;;;;;;;19.23;10.82;;;5.30;75.90;;;;;;4931799;29;20052;-75
2022/03/02 10:17:13;;;;;;;17.17;10.57;;;5.40;75.80;;;;;;4933385;29;20111;-76
2022/03/02 10:19:48;;;;;;;18.42;10.73;;;5.50;75.80;;;;;;4931523;29;20862;-76
2022/03/02 10:22:25;;;;;;;;;;;5.60;75.30;;;;;;4924210;29;20048;-75
2022/03/02 10:25:02;;;;;;;17.23;10.80;;;5.70;72.50;;;;;;4918841;29;19931;-75
2022/03/02 10:27:36;;;;;;;17.48;10.98;;;5.80;72.90;;;;;;4917786;29;20513;-74
2022/03/02 10:30:09;;;;;;;17.83;11.20;;;5.80;73.30;;;;;;4931077;29;20055;-75
2022/03/02 10:32:41;;;;;;;18.50;11.02;;;5.90;73.10;;;;;;4919262;29;20044;-74
2022/03/02 10:35:11;;;;;;;17.15;10.07;;;6.00;72.60;;;;;;4918861;29;20264;-75
2022/03/02 10:37:41;;;;;;;16.30;10.52;;;6.10;72.40;;;;;;4918207;29;20048;-75
2022/03/02 10:40:15;;;;;;;16.20;10.73;;;6.20;71.80;;;;;;4928842;29;20552;-76
2022/03/02 10:42:45;;;;;;;17.70;10.27;;;6.30;71.10;;;;;;4934248;29;20059;-73
2022/03/02 10:45:16;;;;;;;18.30;11.15;;;6.50;70.50;;;;;;4915550;29;20048;-76
2022/03/02 10:47:56;;;;;;;17.10;10.77;;;6.60;70.00;;;;;;4899290;29;20576;-76
2022/03/02 10:50:25;;;;;;;19.02;10.73;;;6.70;69.00;;;;;;4899077;29;20063;-75
2022/03/02 10:52:57;;;;;;;17.92;10.27;;;6.90;68.60;;;;;;4898526;29;20502;-77
2022/03/02 10:55:24;;;;;;;19.02;11.32;;;7.00;68.40;;;;;;4896729;29;20423;-76
2022/03/02 10:57:54;;;;;;;16.75;10.50;;;7.00;67.00;;;;;;4899328;29;20048;-74
2022/03/02 11:00:24;;;;;;;20.70;11.10;;;7.10;67.00;;;;;;4898554;29;20056;-76
2022/03/02 11:02:57;;;;;;;16.27;10.15;;;7.20;66.20;;;;;;4899634;29;20403;-76
2022/03/02 11:05:25;;;;;;;15.95;10.63;;;;;;;;;;4902571;29;20092;-80
2022/03/02 11:07:54;;;;;;;15.98;10.43;;;7.50;75.40;;;;;;4917387;29;20056;-75
2022/03/02 11:10:30;;;;;;;16.45;10.18;;;7.20;69.40;;;;;;4917582;29;20502;-80
2022/03/02 11:12:57;;;;;;;17.25;10.63;;;7.60;64.20;;;;;;4915726;29;20056;-78
2022/03/02 11:15:25;;;;;;;18.27;10.52;;;7.60;63.40;;;;;;4906053;29;20494;-82
2022/03/02 11:17:55;;;;;;;17.02;10.93;;;7.70;62.80;;;;;;4897976;29;20061;-76
2022/03/02 11:20:24;;;;;;;20.67;11.70;;;7.80;62.50;;;;;;4898364;29;20143;-80
2022/03/02 11:22:59;;;;;;;17.25;10.80;;;7.80;61.60;;;;;;4897941;29;20052;-75
2022/03/02 11:25:45;;;;;;;15.57;10.43;;;7.80;61.40;;;;;;4897946;29;20475;-79
2022/03/02 11:28:17;;;;;;;17.30;10.02;;;7.80;60.80;;;;;;4915464;29;20269;-80
2022/03/02 11:30:50;;;;;;;16.08;10.25;;;7.80;60.30;;;;;;4916683;29;20052;-77
2022/03/02 11:33:23;;;;;;;17.23;10.57;;;7.80;59.80;;;;;;4916184;29;20059;-76
2022/03/02 11:35:51;;;;;;;15.95;10.10;;;7.80;80.80;;;;;;4917250;29;20138;-77
2022/03/02 11:38:24;;;;;;;16.58;10.73;;;8.10;83.50;;;;;;4917081;29;20052;-75
2022/03/02 11:40:52;;;;;;;16.75;11.48;;;8.00;84.60;;;;;;4918833;29;20059;-76
2022/03/02 11:43:25;;;;;;;20.23;11.50;;;8.00;84.20;;;;;;4922255;29;20056;-74
2022/03/02 11:45:56;;;;;;;18.95;11.38;;;8.10;84.90;;;;;;4936595;29;20553;-75
2022/03/02 11:48:26;;;;;;;19.77;11.57;;;8.10;85.40;;;;;;4936766;29;20090;-75
2022/03/02 11:51:13;;;;;;;17.27;10.95;;;8.00;85.70;;;;;;4936041;29;20052;-74
2022/03/02 11:53:45;;;;;;;17.60;10.88;;;8.00;85.30;;;;;;4935863;29;20055;-75
2022/03/02 11:56:16;;;;;;;17.63;11.27;;;8.20;78.40;;;;;;4933745;29;20131;-78
2022/03/02 11:59:11;;;;;;;17.13;10.98;;;8.20;76.80;;;;;;4933927;29;20147;-75
2022/03/02 12:01:43;;;;;;;16.90;11.18;;;8.20;77.30;;;;;;4935465;29;20197;-76
2022/03/02 12:04:14;;;;;;;20.27;11.88;;;8.40;78.90;;;;;;4935233;29;20394;-75
2022/03/02 12:06:46;;;;;;;21.15;11.85;;;8.40;83.80;;;;;;4935343;29;20048;-76
2022/03/02 12:09:26;;;;;;;18.55;11.15;;;8.50;84.30;;;;;;4932776;29;20051;-77
2022/03/02 12:12:07;;;;;;;19.67;11.77;;;8.60;79.60;;;;;;4934173;29;20057;-76
2022/03/02 12:14:48;;;;;;;18.25;12.38;;;8.60;82.70;;;;;;4935230;29;20048;-76
2022/03/02 12:17:19;;;;;;;17.27;11.48;;;8.60;77.10;;;;;;4934845;29;20052;-80
2022/03/02 12:19:49;;;;;;;18.10;10.77;;;8.80;76.00;;;;;;4943871;29;20036;-75
2022/03/02 12:22:17;;;;;;;15.70;10.60;;;8.80;83.30;;;;;;4944469;29;20066;-77
2022/03/02 12:24:48;;;;;;;18.15;10.13;;;8.80;84.40;;;;;;4934994;29;20438;-75
2022/03/02 12:27:16;;;;;;;16.10;10.02;;;9.10;64.10;;;;;;4929351;29;20059;-74
2022/03/02 12:29:46;;;;;;;14.00;9.10;;;9.20;56.80;;;;;;4929077;29;20056;-76
2022/03/02 12:32:15;;;;;;;16.73;10.02;;;9.30;54.70;;;;;;4934729;29;20056;-75
2022/03/02 12:34:45;;;;;;;17.00;10.52;;;9.40;53.40;;;;;;4934685;29;20111;-76
2022/03/02 12:37:14;;;;;;;14.98;9.88;;;9.60;52.10;;;;;;4934540;29;20051;-76
2022/03/02 12:39:42;;;;;;;14.02;9.30;;;9.70;50.80;;;;;;4934217;29;20482;-78
2022/03/02 12:42:12;;;;;;;14.82;9.48;;;9.80;51.00;;;;;;4934223;29;20150;-78
2022/03/02 12:44:42;;;;;;;15.88;9.55;;;9.80;51.10;;;;;;4933530;29;20063;-77
2022/03/02 12:47:13;;;;;;;16.40;9.93;;;9.90;51.40;;;;;;4921668;29;20052;-75
2022/03/02 12:49:42;;;;;;;14.93;10.35;;;9.90;51.10;;;;;;4915424;29;20048;-75
2022/03/02 12:52:12;;;;;;;16.90;10.43;;;10.00;51.10;;;;;;4915162;29;20079;-80
2022/03/02 12:54:42;;;;;;;16.45;9.63;;;10.10;50.90;;;;;;4913683;29;20052;-78
2022/03/02 12:57:13;;;;;;;15.15;10.20;;;10.30;50.30;;;;;;4916339;29;20478;-80
2022/03/02 12:59:40;;;;;;;15.80;10.43;;;10.30;50.40;;;;;;4915094;29;20058;-77
2022/03/02 13:02:13;;;;;;;17.02;10.38;;;10.50;49.60;;;;;;4915220;29;20048;-75
2022/03/02 13:04:52;;;;;;;20.38;11.50;;;10.50;49.00;;;;;;4914979;29;20056;-78
2022/03/02 13:07:30;;;;;;;20.73;12.60;;;10.50;49.10;;;;;;4914948;29;20060;-75
2022/03/02 13:09:58;;;;;;;18.83;11.02;;;10.40;48.70;;;;;;4914896;29;20052;-77
2022/03/02 13:12:29;;;;;;;16.83;10.23;;;10.20;48.60;;;;;;4914908;29;20052;-77
2022/03/02 13:14:57;;;;;;;13.82;9.18;;;10.20;48.80;;;;;;4915535;29;20507;-78
2022/03/02 13:17:25;;;;;;;16.02;9.18;;;10.10;48.40;;;;;;4914656;29;20052;-77
2022/03/02 13:19:54;;;;;;;13.48;8.98;;;10.00;47.60;;;;;;4914494;29;20051;-77
2022/03/02 13:22:31;;;;;;;14.25;9.13;;;9.90;46.90;;;;;;4914657;29;20176;-75
2022/03/02 13:25:05;;;;;;;12.77;9.13;;;9.80;46.70;;;;;;4914472;29;20044;-77
2022/03/02 13:27:36;;;;;;;15.27;9.60;;;9.70;46.90;;;;;;4914145;29;20080;-75
2022/03/02 13:30:10;;;;;;;14.70;9.18;;;9.60;46.90;;;;;;4914708;29;20097;-78
2022/03/02 13:32:55;;;;;;;15.70;9.73;;;9.50;47.30;;;;;;4914824;29;20052;-79
2022/03/02 13:35:25;;;;;;;15.85;9.93;;;9.40;47.70;;;;;;4921283;29;20130;-78
2022/03/02 13:38:08;;;;;;;17.92;9.85;;;9.30;48.00;;;;;;4933403;29;20130;-76
2022/03/02 13:40:48;;;;;;;14.50;9.77;;;9.30;48.40;;;;;;4933167;29;20052;-81
2022/03/02 13:43:39;;;;;;;14.45;9.68;;;9.20;48.60;;;;;;4933284;29;20336;-79
2022/03/02 13:46:23;;;;;;;15.85;9.70;;;9.10;48.80;;;;;;4933388;29;20059;-79
2022/03/02 13:48:56;;;;;;;16.88;10.20;;;9.10;48.60;;;;;;4933812;29;20115;-79
2022/03/02 13:51:26;;;;;;;16.77;9.85;;;9.00;48.50;;;;;;4933175;29;20142;-80
2022/03/02 13:54:03;;;;;;;15.30;9.00;;;9.00;48.60;;;;;;4924575;29;20047;-77
2022/03/02 13:56:39;;;;;;;14.88;9.52;;;9.00;49.00;;;;;;4918043;29;20056;-79
2022/03/02 13:59:25;;;;;;;14.05;8.90;;;9.00;49.30;;;;;;4918530;29;20044;-81
2022/03/02 14:01:53;;;;;;;15.60;9.48;;;8.90;49.60;;;;;;4917663;29;20124;-77
2022/03/02 14:04:20;;;;;;;15.20;8.90;;;9.00;50.00;;;;;;4918310;29;20059;-78
2022/03/02 14:06:55;;;;;;;26.67;15.23;;;8.90;50.30;;;;;;4918375;29;20122;-77
2022/03/02 14:09:22;;;;;;;;;;;9.00;50.30;;;;;;4918652;29;20054;-78
2022/03/02 14:11:51;;;;;;;27.55;16.05;;;9.10;50.30;;;;;;4918335;29;20258;-78
2022/03/02 14:14:21;;;;;;;22.33;13.65;;;9.20;50.10;;;;;;4937528;29;20138;-75
2022/03/02 14:17:00;;;;;;;17.63;11.27;;;9.20;49.90;;;;;;4937749;29;20047;-76
2022/03/02 14:19:29;;;;;;;15.40;9.60;;;9.30;49.50;;;;;;4937486;29;20060;-79
2022/03/02 14:22:00;;;;;;;14.45;9.45;;;9.40;49.40;;;;;;4936646;29;20489;-80
2022/03/02 14:24:30;;;;;;;14.98;9.40;;;9.50;49.00;;;;;;4937008;29;20047;-78
2022/03/02 14:27:07;;;;;;;14.05;9.00;;;9.50;48.60;;;;;;4936711;29;20058;-79
2022/03/02 14:29:37;;;;;;;15.48;9.30;;;9.50;48.30;;;;;;4937073;29;20461;-80
2022/03/02 14:32:08;;;;;;;14.38;9.38;;;9.60;48.10;;;;;;4926286;29;20058;-77
2022/03/02 14:34:55;;;;;;;16.00;9.18;;;9.60;48.00;;;;;;4917794;29;20055;-75
2022/03/02 14:37:25;;;;;;;14.20;9.57;;;9.60;47.80;;;;;;4917798;29;20104;-78
2022/03/02 14:40:14;;;;;;;16.42;9.98;;;9.60;48.40;;;;;;4917757;29;20071;-78
2022/03/02 14:42:44;;;;;;;13.18;9.20;;;9.60;48.00;;;;;;4913888;29;20405;-79
2022/03/02 14:45:22;;;;;;;14.82;9.90;;;9.60;48.10;;;;;;4917529;29;20060;-78
2022/03/02 14:47:55;;;;;;;14.20;9.32;;;9.60;48.20;;;;;;4917660;29;20051;-82
2022/03/02 14:50:39;;;;;;;15.32;9.55;;;9.50;48.60;;;;;;4919495;29;20052;-83
2022/03/02 14:53:11;;;;;;;16.05;9.63;;;9.40;48.80;;;;;;4956238;29;20059;-79
2022/03/02 14:55:51;;;;;;;15.90;10.02;;;9.40;49.20;;;;;;4957233;29;20062;-80
2022/03/02 14:58:22;;;;;;;16.33;10.40;;;9.30;49.60;;;;;;4939985;29;20477;-79
2022/03/02 15:00:55;;;;;;;18.27;10.52;;;9.30;49.80;;;;;;4947368;29;20096;-79
2022/03/02 15:03:28;;;;;;;20.73;10.07;;;9.20;49.80;;;;;;4936456;29;20055;-79
2022/03/02 15:06:00;;;;;;;15.02;9.50;;;9.20;50.10;;;;;;4936477;29;20052;-80
2022/03/02 15:08:38;;;;;;;13.88;9.20;;;9.20;50.20;;;;;;4936217;29;20054;-79
2022/03/02 15:11:18;;;;;;;14.02;9.30;;;9.10;50.30;;;;;;4927341;29;20056;-81
2022/03/02 15:16:45;;;;;;;15.10;10.00;;;9.10;50.70;;;;;;4916921;29;20150;-80
2022/03/02 15:19:17;;;;;;;17.00;10.13;;;9.00;50.70;;;;;;4918279;29;20139;-80
2022/03/02 15:21:45;;;;;;;15.55;9.68;;;9.00;50.70;;;;;;4917661;29;20055;-73
2022/03/02 15:24:14;;;;;;;18.00;10.45;;;9.00;50.60;;;;;;4917322;29;20060;-78
2022/03/02 15:26:47;;;;;;;15.20;9.63;;;9.00;50.50;;;;;;4921054;29;20048;-77
2022/03/02 15:29:16;;;;;;;14.77;9.52;;;9.00;50.50;;;;;;4923637;29;20414;-77
2022/03/02 15:31:58;;;;;;;13.93;8.77;;;8.90;50.60;;;;;;4917177;29;20060;-78
2022/03/02 15:34:30;;;;;;;13.80;8.80;;;8.90;50.50;;;;;;4917002;29;20072;-78
2022/03/02 15:37:01;;;;;;;15.18;9.93;;;8.90;50.50;;;;;;4929554;29;20496;-79
2022/03/02 15:39:31;;;;;;;13.45;9.23;;;8.90;50.50;;;;;;4935465;29;20052;-78
2022/03/02 15:42:05;;;;;;;14.20;9.57;;;8.90;50.70;;;;;;4935810;29;20051;-78
2022/03/02 15:44:33;;;;;;;17.45;9.77;;;8.80;50.80;;;;;;4935583;29;20106;-78
2022/03/02 15:47:01;;;;;;;14.57;9.85;;;8.80;50.90;;;;;;4935815;29;20147;-80
2022/03/02 15:49:48;;;;;;;13.73;9.27;;;8.80;50.90;;;;;;4930835;29;20055;-79
2022/03/02 15:52:16;;;;;;;14.57;9.30;;;8.80;50.90;;;;;;4927062;29;20498;-81
2022/03/02 15:54:55;;;;;;;19.17;9.88;;;8.80;50.80;;;;;;4914967;29;20048;-78
2022/03/02 15:57:23;;;;;;;15.57;9.27;;;8.70;50.90;;;;;;4916793;29;20084;-79
2022/03/02 15:59:51;;;;;;;15.90;10.25;;;8.70;51.20;;;;;;4916377;29;20473;-80
2022/03/02 16:02:28;;;;;;;16.83;9.85;;;8.70;51.50;;;;;;4916154;29;20571;-79
2022/03/02 16:05:06;;;;;;;16.08;9.88;;;8.60;51.70;;;;;;4909595;29;20052;-80
2022/03/02 16:07:36;;;;;;;14.32;9.27;;;8.60;51.90;;;;;;4916503;29;20040;-77
2022/03/02 16:10:04;;;;;;;17.98;10.50;;;8.60;52.10;;;;;;4921887;29;20146;-79
2022/03/02 16:12:55;;;;;;;17.42;10.30;;;8.60;52.40;;;;;;4934767;29;20497;-79
2022/03/02 16:15:41;;;;;;;16.05;9.55;;;8.50;52.60;;;;;;4912525;29;20043;-76
2022/03/02 16:18:11;;;;;;;17.80;10.98;;;8.60;52.90;;;;;;4923903;29;20055;-80
2022/03/02 16:20:41;;;;;;;18.55;10.80;;;8.50;52.90;;;;;;4934411;29;20051;-78
2022/03/02 16:23:15;;;;;;;18.23;10.57;;;8.50;53.00;;;;;;4918871;29;20058;-76
2022/03/02 16:25:57;;;;;;;16.67;9.97;;;8.50;53.30;;;;;;4923377;29;20056;-78
2022/03/02 16:28:26;;;;;;;15.68;9.88;;;8.40;53.50;;;;;;4922329;29;20051;-75
2022/03/02 16:30:57;;;;;;;17.95;10.38;;;8.40;53.60;;;;;;4925743;29;20485;-82
2022/03/02 16:33:25;;;;;;;16.63;9.68;;;8.40;53.80;;;;;;4933516;29;20055;-79
2022/03/02 16:35:54;;;;;;;17.00;9.90;;;8.40;53.90;;;;;;4926965;29;20056;-79
2022/03/02 16:38:22;;;;;;;15.05;9.30;;;8.40;54.00;;;;;;4927301;29;20066;-79
2022/03/02 16:40:51;;;;;;;15.98;9.48;;;8.40;54.20;;;;;;4912851;29;20139;-78
2022/03/02 16:43:19;;;;;;;16.17;9.88;;;8.30;54.40;;;;;;4930182;29;20074;-75
2022/03/02 16:45:47;;;;;;;13.05;8.88;;;8.30;55.20;;;;;;4928015;29;20143;-77
2022/03/02 16:48:14;;;;;;;15.82;9.63;;;8.30;54.80;;;;;;4920822;29;20544;-80
2022/03/02 16:50:42;;;;;;;15.25;9.82;;;8.30;54.90;;;;;;4915466;29;20056;-77
2022/03/02 16:53:11;;;;;;;15.07;10.25;;;8.20;55.00;;;;;;4921763;29;20103;-75
2022/03/02 16:55:39;;;;;;;17.05;10.23;;;8.20;55.10;;;;;;4930996;29;20044;-74
2022/03/02 16:58:07;;;;;;;17.95;10.20;;;8.10;55.20;;;;;;4934669;29;20134;-77
2022/03/02 17:00:40;;;;;;;15.85;9.65;;;8.10;55.30;;;;;;4933758;29;20050;-78
2022/03/02 17:03:09;;;;;;;14.93;9.00;;;8.10;55.40;;;;;;4929984;29;20236;-76
2022/03/02 17:05:36;;;;;;;14.63;9.10;;;8.00;55.60;;;;;;4921019;29;20056;-78
2022/03/02 17:08:04;;;;;;;15.63;9.40;;;8.00;55.80;;;;;;4932179;29;20055;-78
2022/03/02 17:10:34;;;;;;;14.32;9.65;;;8.00;56.10;;;;;;4933799;29;20062;-79
2022/03/02 17:13:01;;;;;;;13.80;9.77;;;8.00;56.10;;;;;;4915826;29;20087;-78
2022/03/02 17:15:29;;;;;;;15.38;9.73;;;7.90;56.20;;;;;;4914759;29;20130;-76
2022/03/02 17:17:57;;;;;;;16.05;9.27;;;7.90;56.30;;;;;;4915029;29;20144;-80
2022/03/02 17:20:24;;;;;;;21.52;11.40;;;7.90;56.40;;;;;;4914328;29;20558;-76
2022/03/02 17:22:51;;;;;;;19.05;11.90;;;7.90;56.70;;;;;;4918497;29;20060;-81
2022/03/02 17:25:19;;;;;;;19.25;11.43;;;7.80;56.70;;;;;;4932667;29;20086;-79
2022/03/02 17:27:47;;;;;;;42.67;22.58;;;7.80;56.90;;;;;;4927101;29;20055;-80
2022/03/02 17:30:17;;;;;;;39.55;21.83;;;7.80;57.80;;;;;;4931479;29;20054;-76
2022/03/02 17:32:46;;;;;;;32.05;17.63;;;7.70;58.00;;;;;;4931905;29;20154;-81
2022/03/02 17:35:15;;;;;;;23.23;13.43;;;7.70;57.90;;;;;;4915982;29;20058;-77
2022/03/02 17:37:43;;;;;;;18.08;11.30;;;7.60;57.80;;;;;;4917731;29;20090;-76
2022/03/02 17:40:11;;;;;;;18.08;11.35;;;7.60;58.00;;;;;;4914199;29;20051;-77